createdAt,value
2022-08-31T00:03:39.930Z,18.80
2022-08-31T00:08:43.288Z,18.70
2022-08-31T00:13:46.621Z,18.60
2022-08-31T00:18:52.889Z,18.50
2022-08-31T00:23:56.903Z,18.50
2022-08-31T00:29:00.331Z,18.30
2022-08-31T00:34:05.522Z,18.20
2022-08-31T00:39:08.979Z,18.10
2022-08-31T00:44:12.888Z,18.00
2022-08-31T00:49:20.975Z,17.90
2022-08-31T00:54:28.566Z,17.90
2022-08-31T00:59:31.982Z,17.80
2022-08-31T01:04:37.234Z,17.80
2022-08-31T01:09:55.338Z,17.90
2022-08-31T01:15:02.883Z,17.90
2022-08-31T01:20:16.230Z,18.00
2022-08-31T01:25:21.832Z,17.90
2022-08-31T01:30:27.257Z,17.80
2022-08-31T01:35:31.004Z,17.70
2022-08-31T01:40:45.993Z,17.60
2022-08-31T01:45:50.253Z,17.60
2022-08-31T01:50:53.637Z,17.70
2022-08-31T01:55:58.365Z,17.70
2022-08-31T02:01:03.147Z,17.60
2022-08-31T02:06:19.345Z,17.60
2022-08-31T02:11:24.447Z,17.60
2022-08-31T02:16:27.828Z,17.70
2022-08-31T02:21:31.361Z,17.70
2022-08-31T02:26:36.368Z,17.70
2022-08-31T02:31:41.078Z,17.60
2022-08-31T02:36:45.325Z,17.40
2022-08-31T02:41:50.492Z,17.40
2022-08-31T02:46:53.869Z,17.40
2022-08-31T02:52:12.991Z,17.50
2022-08-31T02:57:18.506Z,17.40
2022-08-31T03:02:23.483Z,17.40
2022-08-31T03:07:35.634Z,17.50
2022-08-31T03:12:40.314Z,17.50
2022-08-31T03:17:43.686Z,17.50
2022-08-31T03:22:47.133Z,21.70
2022-08-31T03:27:52.634Z,17.50
2022-08-31T03:32:57.291Z,17.50
2022-08-31T03:38:08.305Z,17.30
2022-08-31T03:43:13.932Z,17.20
2022-08-31T03:48:18.924Z,17.20
2022-08-31T03:53:23.157Z,17.10
2022-08-31T03:58:31.075Z,17.10
2022-08-31T04:03:34.487Z,17.00
2022-08-31T04:08:56.774Z,17.00
2022-08-31T04:14:29.026Z,17.00
2022-08-31T04:19:51.083Z,17.10
2022-08-31T04:25:04.873Z,17.00
2022-08-31T04:30:11.187Z,17.00
2022-08-31T04:35:15.182Z,17.00
2022-08-31T04:40:19.865Z,17.00
2022-08-31T04:45:25.231Z,16.90
2022-08-31T04:50:29.222Z,17.00
2022-08-31T04:55:45.209Z,17.10
2022-08-31T05:00:51.680Z,17.00
2022-08-31T05:05:57.737Z,17.10
2022-08-31T05:11:01.141Z,17.20
2022-08-31T05:16:07.134Z,18.00
2022-08-31T05:21:12.988Z,17.20
2022-08-31T05:26:23.520Z,17.30
2022-08-31T05:31:31.888Z,17.40
2022-08-31T05:36:37.296Z,17.70
2022-08-31T05:41:44.499Z,17.80
2022-08-31T05:46:52.388Z,17.70
2022-08-31T05:52:01.511Z,17.70
2022-08-31T05:57:07.483Z,17.90
2022-08-31T06:02:12.443Z,18.00
2022-08-31T06:07:16.156Z,18.10
2022-08-31T06:12:27.003Z,17.90
2022-08-31T06:17:35.434Z,18.00
2022-08-31T06:22:39.763Z,17.90
2022-08-31T06:27:49.717Z,18.10
2022-08-31T06:32:58.331Z,18.20
2022-08-31T06:38:06.508Z,18.00
2022-08-31T06:43:34.584Z,17.90
2022-08-31T06:48:50.816Z,17.80
2022-08-31T06:53:55.330Z,18.00
2022-08-31T06:59:18.946Z,18.10
2022-08-31T07:04:51.223Z,18.30
2022-08-31T07:09:54.731Z,18.60
2022-08-31T07:14:58.353Z,19.00
2022-08-31T07:20:03.545Z,19.00
2022-08-31T07:25:11.118Z,19.10
2022-08-31T07:30:15.019Z,19.20
2022-08-31T07:35:22.017Z,19.10
2022-08-31T07:41:00.758Z,19.00
2022-08-31T07:46:04.295Z,19.10
2022-08-31T07:51:14.556Z,19.10
2022-08-31T07:56:26.654Z,18.70
2022-08-31T08:01:45.327Z,18.80
2022-08-31T08:06:51.991Z,18.90
2022-08-31T08:12:25.311Z,18.70
2022-08-31T08:17:45.100Z,18.90
2022-08-31T08:22:55.551Z,19.10
2022-08-31T08:28:29.139Z,19.40
2022-08-31T08:33:35.374Z,19.90
2022-08-31T08:38:43.962Z,19.80
2022-08-31T08:43:52.854Z,20.00
2022-08-31T08:49:00.787Z,19.80
2022-08-31T08:54:11.780Z,20.00
2022-08-31T08:59:19.900Z,20.10
2022-08-31T09:04:40.240Z,20.10
2022-08-31T09:10:02.390Z,20.20
2022-08-31T09:15:28.423Z,20.50
2022-08-31T09:20:33.854Z,20.50
2022-08-31T09:25:53.379Z,16.40
2022-08-31T09:31:07.705Z,21.00
2022-08-31T09:36:17.280Z,21.10
2022-08-31T09:41:33.722Z,21.30
2022-08-31T09:46:37.948Z,21.50
2022-08-31T09:51:41.399Z,21.90
2022-08-31T09:56:57.188Z,21.90
2022-08-31T10:02:01.201Z,21.70
2022-08-31T10:07:11.348Z,21.40
2022-08-31T10:12:22.967Z,21.60
2022-08-31T10:17:31.932Z,21.60
2022-08-31T10:22:41.958Z,21.50
2022-08-31T10:27:52.244Z,21.40
2022-08-31T10:33:08.794Z,21.30
2022-08-31T10:38:21.351Z,21.30
2022-08-31T10:43:33.089Z,21.60
2022-08-31T10:48:47.991Z,21.50
2022-08-31T10:54:07.320Z,21.40
2022-08-31T10:59:23.645Z,21.00
2022-08-31T11:04:42.795Z,21.50
2022-08-31T11:09:55.056Z,21.40
2022-08-31T11:15:29.465Z,21.60
2022-08-31T11:21:01.014Z,21.30
2022-08-31T11:26:34.056Z,21.30
2022-08-31T11:31:40.507Z,21.30
2022-08-31T11:36:52.480Z,21.30
2022-08-31T11:41:59.202Z,21.40
2022-08-31T11:47:06.919Z,21.40
2022-08-31T11:52:29.860Z,21.60
2022-08-31T11:57:57.186Z,21.70
2022-08-31T12:03:09.797Z,21.90
2022-08-31T12:08:15.473Z,22.20
2022-08-31T12:13:34.521Z,22.50
2022-08-31T12:18:52.734Z,22.60
2022-08-31T12:24:15.331Z,22.10
2022-08-31T12:29:25.937Z,22.10
2022-08-31T12:34:32.201Z,20.90
2022-08-31T12:39:35.667Z,21.10
2022-08-31T12:44:43.610Z,21.60
2022-08-31T12:49:59.138Z,21.60
2022-08-31T12:55:33.863Z,21.50
2022-08-31T13:00:39.570Z,21.60
2022-08-31T13:05:59.443Z,21.10
2022-08-31T13:11:22.907Z,20.40
2022-08-31T13:16:27.423Z,20.40
2022-08-31T13:21:33.247Z,20.90
2022-08-31T13:26:38.704Z,21.00
2022-08-31T13:31:49.798Z,20.60
2022-08-31T13:36:59.840Z,20.60
2022-08-31T13:42:08.362Z,25.80
2022-08-31T13:47:20.294Z,21.20
2022-08-31T13:52:28.910Z,20.70
2022-08-31T13:57:35.994Z,19.60
2022-08-31T14:02:39.632Z,18.60
2022-08-31T14:08:08.361Z,18.10
2022-08-31T14:13:20.132Z,17.50
2022-08-31T14:18:28.598Z,17.20
2022-08-31T14:23:36.048Z,17.00
2022-08-31T14:28:44.233Z,16.90
2022-08-31T14:33:50.188Z,16.60
2022-08-31T14:38:55.346Z,16.40
2022-08-31T14:44:06.979Z,16.40
2022-08-31T14:49:11.028Z,16.40
2022-08-31T14:54:17.321Z,16.50
2022-08-31T14:59:22.033Z,16.50
2022-08-31T15:04:25.386Z,16.50
2022-08-31T15:09:32.294Z,16.50
2022-08-31T15:14:38.062Z,16.50
2022-08-31T15:19:42.059Z,16.40
2022-08-31T15:24:46.842Z,16.40
2022-08-31T15:29:53.890Z,16.30
2022-08-31T15:34:58.359Z,16.20
2022-08-31T15:40:06.089Z,16.30
2022-08-31T15:45:12.211Z,16.20
2022-08-31T15:50:19.445Z,16.30
2022-08-31T15:55:26.800Z,16.30
2022-08-31T16:00:32.866Z,16.20
2022-08-31T16:05:39.500Z,16.30
2022-08-31T16:10:46.665Z,16.40
2022-08-31T16:15:52.232Z,16.40
2022-08-31T16:20:56.395Z,16.40
2022-08-31T16:26:01.274Z,16.40
2022-08-31T16:31:06.618Z,16.30
2022-08-31T16:36:16.576Z,16.30
2022-08-31T16:41:24.036Z,16.40
2022-08-31T16:46:40.687Z,16.40
2022-08-31T16:51:48.533Z,16.40
2022-08-31T16:56:55.252Z,16.50
2022-08-31T17:01:58.696Z,16.40
2022-08-31T17:07:02.194Z,16.40
2022-08-31T17:12:13.381Z,19.80
2022-08-31T17:17:18.752Z,16.40
2022-08-31T17:22:29.935Z,16.40
2022-08-31T17:27:37.260Z,16.30
2022-08-31T17:32:45.139Z,16.20
2022-08-31T17:37:50.998Z,16.30
2022-08-31T17:43:00.077Z,16.30
2022-08-31T17:48:05.307Z,16.30
2022-08-31T17:53:09.048Z,16.20
2022-08-31T17:58:14.471Z,16.30
2022-08-31T18:03:18.060Z,16.30
2022-08-31T18:08:26.535Z,16.30
2022-08-31T18:13:31.323Z,16.30
2022-08-31T18:18:35.519Z,16.30
2022-08-31T18:23:39.195Z,16.30
2022-08-31T18:28:44.247Z,16.40
2022-08-31T18:33:52.258Z,16.50
2022-08-31T18:38:59.933Z,16.40
2022-08-31T18:44:37.205Z,16.40
2022-08-31T18:49:43.263Z,16.30
2022-08-31T18:54:49.534Z,16.40
2022-08-31T18:59:55.658Z,16.40
2022-08-31T19:04:59.067Z,16.40
2022-08-31T19:10:02.570Z,16.40
2022-08-31T19:15:10.239Z,16.40
2022-08-31T19:20:14.052Z,16.30
2022-08-31T19:25:18.367Z,16.20
2022-08-31T19:30:28.072Z,16.20
2022-08-31T19:35:31.752Z,16.20
2022-08-31T19:40:38.942Z,16.20
2022-08-31T19:45:45.701Z,16.20
2022-08-31T19:50:50.160Z,16.20
2022-08-31T19:55:57.608Z,16.10
2022-08-31T20:01:07.448Z,16.10
2022-08-31T20:06:13.582Z,16.10
2022-08-31T20:11:21.722Z,16.10
2022-08-31T20:16:33.243Z,16.10
2022-08-31T20:21:39.376Z,16.10
2022-08-31T20:26:51.518Z,16.00
2022-08-31T20:31:57.713Z,16.00
2022-08-31T20:37:01.595Z,16.00
2022-08-31T20:42:06.599Z,16.00
2022-08-31T20:47:30.117Z,16.00
2022-08-31T20:52:36.102Z,16.00
2022-08-31T20:57:40.973Z,16.00
2022-08-31T21:02:45.898Z,16.00
2022-08-31T21:07:49.237Z,16.00
2022-08-31T21:12:55.076Z,16.00
2022-08-31T21:18:04.921Z,16.00
2022-08-31T21:23:09.893Z,16.00
2022-08-31T21:28:15.698Z,16.00
2022-08-31T21:33:20.550Z,16.00
2022-08-31T21:38:23.966Z,16.00
2022-08-31T21:43:27.574Z,16.00
2022-08-31T21:48:34.634Z,16.00
2022-08-31T21:53:38.437Z,16.00
2022-08-31T21:58:41.749Z,16.00
2022-08-31T22:03:46.729Z,16.00
2022-08-31T22:08:51.861Z,16.00
2022-08-31T22:13:57.710Z,16.00
2022-08-31T22:19:02.950Z,15.90
2022-08-31T22:24:09.159Z,15.90
2022-08-31T22:29:16.168Z,16.00
2022-08-31T22:34:21.642Z,15.80
2022-08-31T22:39:28.182Z,15.80
2022-08-31T22:44:34.536Z,15.80
2022-08-31T22:49:39.349Z,15.80
2022-08-31T22:54:42.701Z,15.80
2022-08-31T22:59:47.475Z,15.80
2022-08-31T23:04:52.360Z,15.70
2022-08-31T23:09:56.809Z,15.70
2022-08-31T23:15:00.126Z,17.50
2022-08-31T23:20:06.858Z,15.80
2022-08-31T23:25:10.781Z,15.80
2022-08-31T23:30:16.955Z,15.80
2022-08-31T23:35:24.652Z,16.00
2022-08-31T23:40:30.790Z,15.90
2022-08-31T23:45:34.213Z,15.80
2022-08-31T23:50:38.905Z,15.80
2022-08-31T23:55:44.522Z,15.80
